TimeCDT,TemperatureF,Dew PointF,Humidity,Sea Level PressureIn,VisibilityMPH,Wind Direction,Wind SpeedMPH,Gust SpeedMPH,PrecipitationIn,Events,Conditions,WindDirDegrees,DateUTC
12:15 AM,50.0,30.2,47,29.89,10.0,SSW,20.7,26.5,N/A,,Clear,200,2012-10-09 05:15:00
12:35 AM,50.0,30.2,47,29.89,10.0,SSW,19.6,27.6,N/A,,Clear,200,2012-10-09 05:35:00
12:55 AM,50.0,30.2,47,29.89,10.0,SSW,18.4,25.3,N/A,,Scattered Clouds,200,2012-10-09 05:55:00
1:15 AM,50.0,32.0,50,29.88,10.0,South,18.4,-,N/A,,Scattered Clouds,190,2012-10-09 06:15:00
1:55 AM,48.2,32.0,54,29.89,10.0,SSW,18.4,-,N/A,,Clear,200,2012-10-09 06:55:00
2:15 AM,48.2,32.0,54,29.88,10.0,SSW,17.3,25.3,N/A,,Clear,200,2012-10-09 07:15:00
2:55 AM,48.2,32.0,54,29.86,10.0,SSW,18.4,-,N/A,,Clear,200,2012-10-09 07:55:00
3:15 AM,48.2,32.0,54,29.86,10.0,SSW,15.0,20.7,N/A,,Clear,200,2012-10-09 08:15:00
3:35 AM,48.2,32.0,54,29.86,10.0,SSW,16.1,-,N/A,,Clear,200,2012-10-09 08:35:00
3:55 AM,48.2,32.0,54,29.86,10.0,SSW,15.0,-,N/A,,Clear,200,2012-10-09 08:55:00
4:15 AM,48.2,32.0,54,29.85,10.0,SSW,16.1,-,N/A,,Scattered Clouds,200,2012-10-09 09:15:00
4:35 AM,46.4,32.0,57,29.85,10.0,SSW,17.3,-,N/A,,Mostly Cloudy,200,2012-10-09 09:35:00
4:55 AM,46.4,32.0,57,29.85,10.0,SSW,17.3,23.0,N/A,,Overcast,200,2012-10-09 09:55:00
5:15 AM,46.4,32.0,57,29.84,10.0,SSW,17.3,-,N/A,,Overcast,200,2012-10-09 10:15:00
5:35 AM,46.4,32.0,57,29.84,10.0,SSW,17.3,23.0,N/A,,Overcast,200,2012-10-09 10:35:00
5:55 AM,46.4,32.0,57,29.85,10.0,SSW,16.1,-,N/A,,Overcast,210,2012-10-09 10:55:00
6:15 AM,46.4,32.0,57,29.84,10.0,SSW,17.3,-,N/A,,Mostly Cloudy,200,2012-10-09 11:15:00
6:55 AM,48.2,32.0,54,29.85,10.0,SSW,13.8,-,N/A,,Overcast,200,2012-10-09 11:55:00
7:15 AM,46.4,32.0,57,29.84,10.0,SSW,13.8,-,N/A,,Overcast,200,2012-10-09 12:15:00
7:35 AM,46.4,33.8,62,29.84,10.0,South,15.0,-,N/A,,Overcast,190,2012-10-09 12:35:00
7:55 AM,46.4,33.8,62,29.84,10.0,South,17.3,-,N/A,,Mostly Cloudy,190,2012-10-09 12:55:00
8:15 AM,46.4,33.8,62,29.84,10.0,SSW,16.1,-,N/A,,Scattered Clouds,200,2012-10-09 13:15:00
8:35 AM,46.4,33.8,62,29.84,10.0,SSW,18.4,21.9,N/A,,Mostly Cloudy,200,2012-10-09 13:35:00
8:55 AM,48.2,33.8,58,29.85,10.0,SSW,17.3,24.2,N/A,,Scattered Clouds,200,2012-10-09 13:55:00
9:15 AM,50.0,33.8,54,29.84,10.0,SSW,18.4,23.0,N/A,,Scattered Clouds,210,2012-10-09 14:15:00
9:35 AM,50.0,33.8,54,29.83,10.0,SSW,18.4,-,N/A,,Mostly Cloudy,210,2012-10-09 14:35:00
9:55 AM,50.0,33.8,54,29.83,10.0,SSW,19.6,-,N/A,,Scattered Clouds,210,2012-10-09 14:55:00
10:15 AM,51.8,35.6,54,29.83,10.0,SSW,18.4,26.5,N/A,,Scattered Clouds,210,2012-10-09 15:15:00
10:35 AM,50.0,35.6,58,29.82,10.0,SSW,15.0,20.7,N/A,,Overcast,200,2012-10-09 15:35:00
10:55 AM,51.8,35.6,54,29.82,10.0,SSW,20.7,26.5,N/A,,Scattered Clouds,210,2012-10-09 15:55:00
11:15 AM,51.8,35.6,54,29.83,10.0,SW,20.7,25.3,N/A,,Clear,220,2012-10-09 16:15:00
11:35 AM,53.6,35.6,51,29.83,10.0,SSW,18.4,25.3,N/A,,Scattered Clouds,210,2012-10-09 16:35:00
11:55 AM,55.4,35.6,47,29.83,10.0,SSW,18.4,27.6,N/A,,Scattered Clouds,210,2012-10-09 16:55:00
12:15 PM,55.4,35.6,47,29.83,10.0,SW,20.7,27.6,N/A,,Mostly Cloudy,220,2012-10-09 17:15:00
12:35 PM,55.4,35.6,47,29.81,10.0,SW,19.6,26.5,N/A,,Mostly Cloudy,230,2012-10-09 17:35:00
12:55 PM,57.2,35.6,44,29.80,10.0,SW,17.3,23.0,N/A,,Scattered Clouds,220,2012-10-09 17:55:00
1:15 PM,59.0,35.6,42,29.79,10.0,SSW,17.3,-,N/A,,Clear,210,2012-10-09 18:15:00
1:35 PM,59.0,35.6,42,29.78,10.0,SSW,17.3,21.9,N/A,,Clear,210,2012-10-09 18:35:00
1:55 PM,60.8,35.6,39,29.78,10.0,SW,17.3,25.3,N/A,,Clear,230,2012-10-09 18:55:00
2:15 PM,60.8,35.6,39,29.79,10.0,SW,17.3,26.5,N/A,,Clear,220,2012-10-09 19:15:00
2:35 PM,60.8,35.6,39,29.79,10.0,SW,17.3,26.5,N/A,,Scattered Clouds,230,2012-10-09 19:35:00
2:55 PM,60.8,35.6,39,29.79,10.0,SW,23.0,27.6,N/A,,Mostly Cloudy,230,2012-10-09 19:55:00
3:15 PM,60.8,35.6,39,29.78,10.0,SW,13.8,23.0,N/A,,Overcast,230,2012-10-09 20:15:00
3:35 PM,59.0,35.6,42,29.79,10.0,WSW,13.8,20.7,N/A,,Overcast,250,2012-10-09 20:35:00
3:55 PM,55.4,39.2,54,29.80,10.0,WNW,17.3,24.2,N/A,,Overcast,300,2012-10-09 20:55:00
4:15 PM,53.6,41.0,62,29.81,10.0,West,23.0,28.8,N/A,,Overcast,280,2012-10-09 21:15:00
4:35 PM,51.8,39.2,62,29.83,10.0,West,23.0,29.9,N/A,,Overcast,280,2012-10-09 21:35:00
4:55 PM,48.2,41.0,76,29.84,10.0,WNW,20.7,28.8,N/A,,Overcast,290,2012-10-09 21:55:00
5:15 PM,46.4,42.8,87,29.85,10.0,WNW,19.6,29.9,N/A,,Drizzle,290,2012-10-09 22:15:00
5:35 PM,44.6,42.8,93,29.86,7.0,NW,19.6,27.6,0.01,Rain,Rain,310,2012-10-09 22:35:00
5:55 PM,42.8,42.8,100,29.86,7.0,WNW,19.6,25.3,0.02,Rain,Rain,300,2012-10-09 22:55:00
6:15 PM,42.8,42.8,100,29.87,5.0,WNW,12.7,17.3,0.04,Rain,Light Rain,300,2012-10-09 23:15:00
6:35 PM,42.8,41.0,93,29.86,10.0,WNW,9.2,-,0.04,,Drizzle,290,2012-10-09 23:35:00
6:55 PM,42.8,41.0,93,29.86,10.0,West,9.2,-,0.05,,Drizzle,280,2012-10-09 23:55:00
7:15 PM,42.8,41.0,93,29.86,10.0,West,6.9,-,N/A,,Drizzle,260,2012-10-10 00:15:00
7:35 PM,42.8,41.0,93,29.86,10.0,West,11.5,16.1,N/A,,Drizzle,260,2012-10-10 00:35:00
7:55 PM,42.8,41.0,93,29.86,10.0,WSW,10.4,-,N/A,,Drizzle,250,2012-10-10 00:55:00
8:15 PM,42.8,41.0,93,29.86,10.0,WSW,8.1,-,N/A,,Overcast,250,2012-10-10 01:15:00
8:35 PM,42.8,41.0,93,29.87,10.0,WSW,9.2,-,N/A,,Overcast,250,2012-10-10 01:35:00
8:55 PM,42.8,41.0,93,29.87,10.0,West,10.4,-,N/A,,Overcast,260,2012-10-10 01:55:00
9:15 PM,42.8,41.0,93,29.88,10.0,West,11.5,-,N/A,,Mostly Cloudy,260,2012-10-10 02:15:00
9:35 PM,42.8,41.0,93,29.88,10.0,WSW,11.5,-,N/A,,Scattered Clouds,250,2012-10-10 02:35:00
9:55 PM,42.8,41.0,93,29.89,10.0,West,11.5,-,N/A,,Clear,260,2012-10-10 02:55:00
10:15 PM,42.8,41.0,93,29.89,10.0,West,15.0,-,N/A,,Clear,270,2012-10-10 03:15:00
10:35 PM,42.8,41.0,93,29.90,10.0,West,10.4,-,N/A,,Clear,270,2012-10-10 03:35:00
10:55 PM,41.0,41.0,100,29.90,10.0,West,11.5,-,N/A,,Clear,270,2012-10-10 03:55:00
11:15 PM,41.0,39.2,93,29.90,10.0,West,11.5,-,N/A,,Clear,270,2012-10-10 04:15:00
11:35 PM,41.0,37.4,87,29.90,10.0,West,11.5,-,N/A,,Clear,270,2012-10-10 04:35:00
11:55 PM,41.0,37.4,87,29.91,10.0,West,11.5,-,N/A,,Clear,270,2012-10-10 04:55:00